Manas, China
Current Conditions -  °F | °C
As of 8:00 PM on Thursday 23 Oct 2014 (Local Time) from ZWWW Reporting Station
Clear Clear  
Wind Chill: 59°   Ceiling: Unl
Heat Index: 59°   Visibility: 4mi
Dew Point: 41°   Wind: 4mph
Humidity: 51%   Direction: 260°W
Pressure: 29.88"   Gusts: NA
Location:  44.3°N, 86.22°E
Report Text: ZWWW 231200Z 26002MPS 6000 NSC 15/05 Q1012 NOSIG
Loading
Personal Weather Stations






























Interactive Weather Map
Tropical Storm Tracking
New forecast layout! Learn more

10-Day Weather Forecast

Advertisements
Track Severe Weather on mobile